createdAt,value
2019-01-15T00:00:56.833Z,74.14
2019-01-15T00:01:56.824Z,73.83
2019-01-15T00:02:56.814Z,74.04
2019-01-15T00:03:56.805Z,73.41
2019-01-15T00:04:56.795Z,73.62
2019-01-15T00:05:56.785Z,74.04
2019-01-15T00:06:56.773Z,74.14
2019-01-15T00:07:56.760Z,74.14
2019-01-15T00:08:56.749Z,74.04
2019-01-15T00:09:56.738Z,74.24
2019-01-15T00:10:56.729Z,73.83
2019-01-15T00:11:56.725Z,74.66
2019-01-15T00:12:56.715Z,74.11
2019-01-15T00:13:56.697Z,73.72
2019-01-15T00:14:56.686Z,73.90
2019-01-15T00:15:56.676Z,74.11
2019-01-15T00:16:56.670Z,74.01
2019-01-15T00:17:56.656Z,74.21
2019-01-15T00:18:56.643Z,74.42
2019-01-15T00:19:56.632Z,74.21
2019-01-15T00:20:56.622Z,74.21
2019-01-15T00:21:56.621Z,74.11
2019-01-15T00:22:56.608Z,74.73
2019-01-15T00:23:56.599Z,75.05
2019-01-15T00:24:56.582Z,74.84
2019-01-15T00:25:56.571Z,74.52
2019-01-15T00:26:56.557Z,74.63
2019-01-15T00:27:56.549Z,74.63
2019-01-15T00:28:56.539Z,74.32
2019-01-15T00:29:56.541Z,74.84
2019-01-15T00:30:56.514Z,75.05
2019-01-15T00:31:56.506Z,74.52
2019-01-15T00:32:56.493Z,74.70
2019-01-15T00:33:56.498Z,74.18
2019-01-15T00:34:56.478Z,75.01
2019-01-15T00:35:56.462Z,74.80
2019-01-15T00:36:56.454Z,74.07
2019-01-15T00:37:56.440Z,74.60
2019-01-15T00:38:56.429Z,74.49
2019-01-15T00:39:56.425Z,74.49
2019-01-15T00:40:56.408Z,74.70
2019-01-15T00:41:56.398Z,74.80
2019-01-15T00:42:56.407Z,74.80
2019-01-15T00:43:56.384Z,74.07
2019-01-15T00:44:56.367Z,75.22
2019-01-15T00:45:56.356Z,74.49
2019-01-15T00:46:56.346Z,75.22
2019-01-15T00:47:56.333Z,74.91
2019-01-15T00:48:56.322Z,75.63
2019-01-15T00:49:56.312Z,75.01
2019-01-15T00:50:56.301Z,74.18
2019-01-15T00:51:56.299Z,74.49
2019-01-15T00:52:56.286Z,74.80
2019-01-15T00:53:56.269Z,74.25
2019-01-15T00:54:56.258Z,74.60
2019-01-15T00:55:56.248Z,74.80
2019-01-15T00:56:56.237Z,74.87
2019-01-15T00:57:56.227Z,74.80
2019-01-15T00:58:56.233Z,74.80
2019-01-15T00:59:56.205Z,74.60
2019-01-15T01:00:56.194Z,75.12
2019-01-15T01:01:56.187Z,75.12
2019-01-15T01:02:56.175Z,75.22
2019-01-15T01:03:56.162Z,74.77
2019-01-15T01:04:56.158Z,74.60
2019-01-15T01:05:56.140Z,74.60
2019-01-15T01:06:56.130Z,74.60
2019-01-15T01:07:56.119Z,74.66
2019-01-15T01:08:56.116Z,75.01
2019-01-15T01:09:56.098Z,74.77
2019-01-15T01:10:56.094Z,74.18
2019-01-15T01:11:56.077Z,74.80
2019-01-15T01:12:56.069Z,74.38
2019-01-15T01:13:56.058Z,74.60
2019-01-15T01:14:56.057Z,75.12
2019-01-15T01:15:56.035Z,75.01
2019-01-15T01:16:56.044Z,74.07
2019-01-15T01:17:56.012Z,74.80
2019-01-15T01:18:56.002Z,74.91
2019-01-15T01:19:55.993Z,73.83
2019-01-15T01:20:55.984Z,74.91
2019-01-15T01:21:55.971Z,74.60
2019-01-15T01:22:55.961Z,74.46
2019-01-15T01:23:55.947Z,74.56
2019-01-15T01:24:55.938Z,75.08
2019-01-15T01:25:55.932Z,74.60
2019-01-15T01:26:55.925Z,74.70
2019-01-15T01:27:55.908Z,74.70
2019-01-15T01:28:55.921Z,74.91
2019-01-15T01:29:55.884Z,74.66
2019-01-15T01:30:55.878Z,74.91
2019-01-15T01:31:55.863Z,74.60
2019-01-15T01:32:55.852Z,74.98
2019-01-15T01:33:55.845Z,75.01
2019-01-15T01:34:55.832Z,74.77
2019-01-15T01:35:55.822Z,74.66
2019-01-15T01:36:55.814Z,74.25
2019-01-15T01:37:55.801Z,74.77
2019-01-15T01:38:55.823Z,74.77
2019-01-15T01:39:55.777Z,74.87
2019-01-15T01:40:55.769Z,74.87
2019-01-15T01:41:55.757Z,74.98
2019-01-15T01:42:55.748Z,74.49
2019-01-15T01:43:55.743Z,74.35
2019-01-15T01:44:55.725Z,74.98
2019-01-15T01:45:55.715Z,74.04
2019-01-15T01:46:55.708Z,74.98
2019-01-15T01:47:55.695Z,74.77
2019-01-15T01:48:55.694Z,75.01
2019-01-15T01:49:55.672Z,74.56
2019-01-15T01:50:55.660Z,74.87
2019-01-15T01:51:55.658Z,74.87
2019-01-15T01:52:55.661Z,74.87
2019-01-15T01:53:55.630Z,74.56
2019-01-15T01:54:55.618Z,74.46
2019-01-15T01:55:55.608Z,74.46
2019-01-15T01:56:55.597Z,74.04
2019-01-15T01:57:55.590Z,74.98
2019-01-15T01:58:55.575Z,74.04
2019-01-15T01:59:55.576Z,74.77
2019-01-15T02:00:55.555Z,73.93
2019-01-15T02:01:55.549Z,74.15
2019-01-15T02:02:55.533Z,74.04
2019-01-15T02:03:55.533Z,74.15
2019-01-15T02:04:55.509Z,74.25
2019-01-15T02:05:55.508Z,74.15
2019-01-15T02:06:55.491Z,74.46
2019-01-15T02:07:55.498Z,74.04
2019-01-15T02:08:55.471Z,74.28
2019-01-15T02:09:55.467Z,73.93
2019-01-15T02:10:55.446Z,74.04
2019-01-15T02:11:55.438Z,74.15
2019-01-15T02:12:55.426Z,74.15
2019-01-15T02:13:55.416Z,74.28
2019-01-15T02:14:55.403Z,73.62
2019-01-15T02:15:55.394Z,73.31
2019-01-15T02:16:55.381Z,73.31
2019-01-15T02:17:55.370Z,74.25
2019-01-15T02:18:55.362Z,73.41
2019-01-15T02:19:55.352Z,74.04
2019-01-15T02:20:55.347Z,73.72
2019-01-15T02:21:55.346Z,73.72
2019-01-15T02:22:55.319Z,73.41
2019-01-15T02:23:55.309Z,73.72
2019-01-15T02:24:55.304Z,73.72
2019-01-15T02:25:55.289Z,73.83
2019-01-15T02:26:55.286Z,73.62
2019-01-15T02:27:55.264Z,74.35
2019-01-15T02:28:55.255Z,74.56
2019-01-15T02:29:55.243Z,73.10
2019-01-15T02:30:55.233Z,74.35
2019-01-15T02:31:55.222Z,73.93
2019-01-15T02:32:55.219Z,73.31
2019-01-15T02:33:55.204Z,74.35
2019-01-15T02:34:55.190Z,73.93
2019-01-15T02:35:55.180Z,73.83
2019-01-15T02:36:55.190Z,73.72
2019-01-15T02:37:55.157Z,73.31
2019-01-15T02:38:55.149Z,74.25
2019-01-15T02:39:55.139Z,74.15
2019-01-15T02:40:55.128Z,74.15
2019-01-15T02:41:55.116Z,74.21
2019-01-15T02:42:55.113Z,73.41
2019-01-15T02:43:55.094Z,73.52
2019-01-15T02:44:55.090Z,73.72
2019-01-15T02:45:55.072Z,73.52
2019-01-15T02:46:55.067Z,73.90
2019-01-15T02:47:55.050Z,73.72
2019-01-15T02:48:55.042Z,74.52
2019-01-15T02:49:55.032Z,73.72
2019-01-15T02:50:55.023Z,73.90
2019-01-15T02:51:55.008Z,74.21
2019-01-15T02:52:54.999Z,72.96
2019-01-15T02:53:54.990Z,74.52
2019-01-15T02:54:54.996Z,73.49
2019-01-15T02:55:54.969Z,73.49
2019-01-15T02:56:54.963Z,73.49
2019-01-15T02:57:54.950Z,73.27
2019-01-15T02:58:54.938Z,74.11
2019-01-15T02:59:54.923Z,74.21
2019-01-15T03:00:54.922Z,73.59
2019-01-15T03:01:54.906Z,74.01
2019-01-15T03:02:54.906Z,74.01
2019-01-15T03:03:54.885Z,74.07
2019-01-15T03:04:54.872Z,74.01
2019-01-15T03:05:54.866Z,73.35
2019-01-15T03:06:54.850Z,73.90
2019-01-15T03:07:54.837Z,73.66
2019-01-15T03:08:54.828Z,73.76
2019-01-15T03:09:54.816Z,72.93
2019-01-15T03:10:54.804Z,73.86
2019-01-15T03:11:54.798Z,73.45
2019-01-15T03:12:56.641Z,73.97
2019-01-15T03:13:54.776Z,74.39
2019-01-15T03:14:54.776Z,74.52
2019-01-15T03:15:54.751Z,74.42
2019-01-15T03:16:54.742Z,73.97
2019-01-15T03:17:54.738Z,73.69
2019-01-15T03:18:54.719Z,74.32
2019-01-15T03:19:54.708Z,74.11
2019-01-15T03:20:54.697Z,73.66
2019-01-15T03:21:54.687Z,73.55
2019-01-15T03:22:54.677Z,73.59
2019-01-15T03:23:54.667Z,74.18
2019-01-15T03:24:54.654Z,74.21
2019-01-15T03:25:54.645Z,74.21
2019-01-15T03:26:54.636Z,73.69
2019-01-15T03:27:54.623Z,74.01
2019-01-15T03:28:54.613Z,74.01
2019-01-15T03:29:54.601Z,74.21
2019-01-15T03:30:54.601Z,74.32
2019-01-15T03:31:54.595Z,74.52
2019-01-15T03:32:54.571Z,74.42
2019-01-15T03:33:54.558Z,74.77
2019-01-15T03:34:54.548Z,75.26
2019-01-15T03:35:54.545Z,74.66
2019-01-15T03:36:54.526Z,74.56
2019-01-15T03:37:54.534Z,74.42
2019-01-15T03:38:54.536Z,74.77
2019-01-15T03:39:54.494Z,75.50
2019-01-15T03:40:54.485Z,74.46
2019-01-15T03:41:54.485Z,75.26
2019-01-15T03:43:02.738Z,75.50
2019-01-15T03:43:55.452Z,75.40
2019-01-15T03:44:54.444Z,75.40
2019-01-15T03:45:54.430Z,75.40
2019-01-15T03:46:54.421Z,75.40
2019-01-15T03:47:54.410Z,75.29
2019-01-15T03:48:54.403Z,75.50
2019-01-15T03:49:54.396Z,75.81
2019-01-15T03:50:54.381Z,75.81
2019-01-15T03:51:54.367Z,75.60
2019-01-15T03:52:54.355Z,75.60
2019-01-15T03:53:54.345Z,76.02
2019-01-15T03:54:54.341Z,75.71
2019-01-15T03:55:54.338Z,75.92
2019-01-15T03:56:54.314Z,75.92
2019-01-15T03:57:54.307Z,76.12
2019-01-15T03:58:54.291Z,76.16
2019-01-15T03:59:54.282Z,75.81
2019-01-15T04:00:54.295Z,76.47
2019-01-15T04:01:54.259Z,76.65
2019-01-15T04:02:54.252Z,76.23
2019-01-15T04:03:54.238Z,76.68
2019-01-15T04:04:54.228Z,76.33
2019-01-15T04:05:54.216Z,76.43
2019-01-15T04:06:54.211Z,76.65
2019-01-15T04:07:54.196Z,76.43
2019-01-15T04:08:54.189Z,76.33
2019-01-15T04:09:54.174Z,76.33
2019-01-15T04:10:54.162Z,76.43
2019-01-15T04:11:54.154Z,76.33
2019-01-15T04:12:54.156Z,76.33
2019-01-15T04:13:54.132Z,76.12
2019-01-15T04:14:54.123Z,76.23
2019-01-15T04:15:54.109Z,76.75
2019-01-15T04:16:54.099Z,76.43
2019-01-15T04:17:54.091Z,76.43
2019-01-15T04:18:54.088Z,76.23
2019-01-15T04:19:54.066Z,76.61
2019-01-15T04:20:54.057Z,76.33
2019-01-15T04:21:54.045Z,76.33
2019-01-15T04:22:54.037Z,76.40
2019-01-15T04:23:54.026Z,76.40
2019-01-15T04:24:54.032Z,76.40
2019-01-15T04:25:54.003Z,76.54
2019-01-15T04:26:53.993Z,76.82
2019-01-15T04:27:53.981Z,77.13
2019-01-15T04:28:53.976Z,76.51
2019-01-15T04:29:53.961Z,76.61
2019-01-15T04:30:53.959Z,76.51
2019-01-15T04:31:53.939Z,76.82
2019-01-15T04:32:53.942Z,76.72
2019-01-15T04:33:53.929Z,76.82
2019-01-15T04:34:53.912Z,77.23
2019-01-15T04:35:53.901Z,77.03
2019-01-15T04:36:53.894Z,77.13
2019-01-15T04:37:53.889Z,77.34
2019-01-15T04:38:53.864Z,77.34
2019-01-15T04:39:53.861Z,77.34
2019-01-15T04:40:53.892Z,77.34
2019-01-15T04:41:53.832Z,77.66
2019-01-15T04:42:53.839Z,77.55
2019-01-15T04:43:53.810Z,77.76
2019-01-15T04:44:53.801Z,77.97
2019-01-15T04:45:53.788Z,77.97
2019-01-15T04:46:53.778Z,78.28
2019-01-15T04:47:53.770Z,78.17
2019-01-15T04:48:53.763Z,78.38
2019-01-15T04:49:53.751Z,78.17
2019-01-15T04:50:53.735Z,78.59
2019-01-15T04:51:53.725Z,78.07
2019-01-15T04:52:53.720Z,78.59
2019-01-15T04:53:53.704Z,78.59
2019-01-15T04:54:53.705Z,78.49
2019-01-15T04:55:53.682Z,78.80
2019-01-15T04:56:53.672Z,78.59
2019-01-15T04:57:53.659Z,78.80
2019-01-15T04:58:53.651Z,79.01
2019-01-15T04:59:53.641Z,79.18
2019-01-15T05:00:53.630Z,78.97
2019-01-15T05:01:53.617Z,79.53
2019-01-15T05:02:53.608Z,79.80
2019-01-15T05:03:53.600Z,79.91
2019-01-15T05:04:53.585Z,80.36
2019-01-15T05:05:53.578Z,80.64
2019-01-15T05:06:53.566Z,80.85
2019-01-15T05:07:53.557Z,80.74
2019-01-15T05:08:53.545Z,80.74
2019-01-15T05:09:53.546Z,80.95
2019-01-15T05:10:53.520Z,80.95
2019-01-15T05:11:53.513Z,81.16
2019-01-15T05:12:53.500Z,80.95
2019-01-15T05:13:53.489Z,80.64
2019-01-15T05:14:53.479Z,80.43
2019-01-15T05:15:53.473Z,80.64
2019-01-15T05:16:53.459Z,80.64
2019-01-15T05:17:53.465Z,80.74
2019-01-15T05:18:53.469Z,80.85
2019-01-15T05:19:53.424Z,80.54
2019-01-15T05:20:53.422Z,80.54
2019-01-15T05:21:53.410Z,80.33
2019-01-15T05:22:53.397Z,79.91
2019-01-15T05:23:53.393Z,80.12
2019-01-15T05:24:53.372Z,80.33
2019-01-15T05:25:53.361Z,79.80
2019-01-15T05:26:53.350Z,79.80
2019-01-15T05:27:53.339Z,79.77
2019-01-15T05:28:53.333Z,79.49
2019-01-15T05:29:53.327Z,80.12
2019-01-15T05:30:53.306Z,79.87
2019-01-15T05:31:53.297Z,79.49
2019-01-15T05:32:53.285Z,80.02
2019-01-15T05:33:53.311Z,79.98
2019-01-15T05:34:53.268Z,79.28
2019-01-15T05:35:53.277Z,79.87
2019-01-15T05:36:53.242Z,80.08
2019-01-15T05:37:53.249Z,79.87
2019-01-15T05:38:53.221Z,80.08
2019-01-15T05:39:53.212Z,79.56
2019-01-15T05:40:53.208Z,79.66
2019-01-15T05:41:53.200Z,79.04
2019-01-15T05:42:53.178Z,79.25
2019-01-15T05:43:53.167Z,79.14
2019-01-15T05:44:53.158Z,79.46
2019-01-15T05:45:53.153Z,79.14
2019-01-15T05:46:53.139Z,78.59
2019-01-15T05:47:53.124Z,78.59
2019-01-15T05:48:53.116Z,78.59
2019-01-15T05:49:53.104Z,78.83
2019-01-15T05:50:53.091Z,78.83
2019-01-15T05:51:53.082Z,78.69
2019-01-15T05:52:53.076Z,78.73
2019-01-15T05:53:53.086Z,78.31
2019-01-15T05:54:53.050Z,78.38
2019-01-15T05:55:53.038Z,79.00
2019-01-15T05:56:53.032Z,78.63
2019-01-15T05:57:53.016Z,78.28
2019-01-15T05:58:53.010Z,78.49
2019-01-15T05:59:52.995Z,77.86
2019-01-15T06:00:52.984Z,77.75
2019-01-15T06:01:52.975Z,77.86
2019-01-15T06:02:52.972Z,77.65
2019-01-15T06:03:52.955Z,78.07
2019-01-15T06:04:52.947Z,78.17
2019-01-15T06:05:52.932Z,77.96
2019-01-15T06:06:52.920Z,77.44
2019-01-15T06:07:52.909Z,77.55
2019-01-15T06:08:52.907Z,77.44
2019-01-15T06:09:52.892Z,77.72
2019-01-15T06:10:52.885Z,77.09
2019-01-15T06:11:52.867Z,77.09
2019-01-15T06:12:52.872Z,77.09
2019-01-15T06:13:52.847Z,77.09
2019-01-15T06:14:52.834Z,77.09
2019-01-15T06:15:52.827Z,76.89
2019-01-15T06:16:52.819Z,77.09
2019-01-15T06:17:52.804Z,78.14
2019-01-15T06:18:52.792Z,76.99
2019-01-15T06:19:52.792Z,76.57
2019-01-15T06:20:52.773Z,76.68
2019-01-15T06:21:52.770Z,76.68
2019-01-15T06:22:52.750Z,76.57
2019-01-15T06:23:52.738Z,76.37
2019-01-15T06:24:52.728Z,76.57
2019-01-15T06:25:52.875Z,76.57
2019-01-15T06:26:52.706Z,76.57
2019-01-15T06:27:52.696Z,76.37
2019-01-15T06:28:52.686Z,76.47
2019-01-15T06:29:52.674Z,76.57
2019-01-15T06:30:52.663Z,76.37
2019-01-15T06:31:52.834Z,76.16
2019-01-15T06:32:52.642Z,76.47
2019-01-15T06:33:52.633Z,76.06
2019-01-15T06:34:53.015Z,76.20
2019-01-15T06:35:52.611Z,75.95
2019-01-15T06:36:52.601Z,75.74
2019-01-15T06:37:52.589Z,75.85
2019-01-15T06:38:52.579Z,75.85
2019-01-15T06:39:52.572Z,75.95
2019-01-15T06:40:52.557Z,76.06
2019-01-15T06:41:52.546Z,75.43
2019-01-15T06:42:52.535Z,76.06
2019-01-15T06:43:52.532Z,75.43
2019-01-15T06:44:52.517Z,75.32
2019-01-15T06:45:52.508Z,75.85
2019-01-15T06:46:52.494Z,75.32
2019-01-15T06:47:52.487Z,75.50
2019-01-15T06:48:52.471Z,75.32
2019-01-15T06:49:52.461Z,75.09
2019-01-15T06:50:52.450Z,75.09
2019-01-15T06:51:52.456Z,74.88
2019-01-15T06:52:52.431Z,74.39
2019-01-15T06:53:52.418Z,74.98
2019-01-15T06:54:52.410Z,74.88
2019-01-15T06:55:52.398Z,74.57
2019-01-15T06:56:52.393Z,74.25
2019-01-15T06:57:52.384Z,74.35
2019-01-15T06:58:52.367Z,73.94
2019-01-15T06:59:52.357Z,74.77
2019-01-15T07:00:52.343Z,73.83
2019-01-15T07:01:52.334Z,74.25
2019-01-15T07:02:52.323Z,74.46
2019-01-15T07:03:52.316Z,74.15
2019-01-15T07:04:52.327Z,74.57
2019-01-15T07:05:52.291Z,75.19
2019-01-15T07:06:52.280Z,75.09
2019-01-15T07:07:52.271Z,75.29
2019-01-15T07:08:52.257Z,75.12
2019-01-15T07:09:52.261Z,74.57
2019-01-15T07:10:52.236Z,74.91
2019-01-15T07:11:52.225Z,74.49
2019-01-15T07:12:52.215Z,74.67
2019-01-15T07:13:57.016Z,74.35
2019-01-15T07:14:53.193Z,74.67
2019-01-15T07:15:52.204Z,74.77
2019-01-15T07:16:52.173Z,75.12
2019-01-15T07:17:52.163Z,74.91
2019-01-15T07:18:52.151Z,73.73
2019-01-15T07:19:52.161Z,74.25
2019-01-15T07:20:52.135Z,74.46
2019-01-15T07:21:52.127Z,73.94
2019-01-15T07:22:52.111Z,74.04
2019-01-15T07:23:52.098Z,74.35
2019-01-15T07:24:52.091Z,74.15
2019-01-15T07:25:52.082Z,74.25
2019-01-15T07:26:52.072Z,73.73
2019-01-15T07:27:52.061Z,74.25
2019-01-15T07:28:52.047Z,73.94
2019-01-15T07:29:52.034Z,73.83
2019-01-15T07:30:52.023Z,73.52
2019-01-15T07:31:52.015Z,73.32
2019-01-15T07:32:52.007Z,73.94
2019-01-15T07:33:51.991Z,73.52
2019-01-15T07:34:51.982Z,74.04
2019-01-15T07:35:51.973Z,73.63
2019-01-15T07:36:51.969Z,73.63
2019-01-15T07:37:51.950Z,73.73
2019-01-15T07:38:51.951Z,74.25
2019-01-15T07:39:51.927Z,73.73
2019-01-15T07:40:51.920Z,73.11
2019-01-15T07:41:51.912Z,73.56
2019-01-15T07:42:51.898Z,73.63
2019-01-15T07:43:51.885Z,73.52
2019-01-15T07:44:51.874Z,73.52
2019-01-15T07:45:51.864Z,73.11
2019-01-15T07:46:51.853Z,73.73
2019-01-15T07:47:51.848Z,73.94
2019-01-15T07:48:51.833Z,73.94
2019-01-15T07:49:51.822Z,73.83
2019-01-15T07:50:51.816Z,73.91
2019-01-15T07:51:51.801Z,73.63
2019-01-15T07:52:51.789Z,74.04
2019-01-15T07:53:51.778Z,74.04
2019-01-15T07:54:51.766Z,74.04
2019-01-15T07:55:51.759Z,74.46
2019-01-15T07:56:51.747Z,74.46
2019-01-15T07:57:51.743Z,74.88
2019-01-15T07:58:51.726Z,74.88
2019-01-15T07:59:51.714Z,74.57
2019-01-15T08:00:51.715Z,74.46
2019-01-15T08:01:51.692Z,74.67
2019-01-15T08:02:51.683Z,74.98
2019-01-15T08:03:51.696Z,74.95
2019-01-15T08:04:52.278Z,74.57
2019-01-15T08:05:51.651Z,74.35
2019-01-15T08:06:51.642Z,74.95
2019-01-15T08:07:52.316Z,74.74
2019-01-15T08:08:51.619Z,74.35
2019-01-15T08:09:51.611Z,74.98
2019-01-15T08:10:56.994Z,74.74
2019-01-15T08:11:52.584Z,74.11
2019-01-15T08:12:51.577Z,74.43
2019-01-15T08:13:51.565Z,74.32
2019-01-15T08:14:52.034Z,75.26
2019-01-15T08:15:51.543Z,74.74
2019-01-15T08:16:51.533Z,74.84
2019-01-15T08:17:53.119Z,74.95
2019-01-15T08:18:51.942Z,74.88
2019-01-15T08:19:52.657Z,75.19
2019-01-15T08:20:51.493Z,75.05
2019-01-15T08:21:52.206Z,75.57
2019-01-15T08:22:51.472Z,75.67
2019-01-15T08:23:51.463Z,75.67
2019-01-15T08:24:51.447Z,76.02
2019-01-15T08:25:51.436Z,76.43
2019-01-15T08:26:51.427Z,76.43
2019-01-15T08:27:51.420Z,76.29
2019-01-15T08:28:51.410Z,76.51
2019-01-15T08:29:51.396Z,76.33
2019-01-15T08:30:51.382Z,76.54
2019-01-15T08:31:51.377Z,76.75
2019-01-15T08:32:51.362Z,76.51
2019-01-15T08:33:51.357Z,77.16
2019-01-15T08:34:51.341Z,77.58
2019-01-15T08:35:51.336Z,77.55
2019-01-15T08:36:51.321Z,77.58
2019-01-15T08:37:51.311Z,78.00
2019-01-15T08:38:51.299Z,78.20
2019-01-15T08:39:51.290Z,78.10
2019-01-15T08:40:51.279Z,78.20
2019-01-15T08:41:51.275Z,77.75
2019-01-15T08:42:51.303Z,77.75
2019-01-15T08:43:51.248Z,78.20
2019-01-15T08:44:51.247Z,78.00
2019-01-15T08:45:51.427Z,77.89
2019-01-15T08:46:51.216Z,78.17
2019-01-15T08:47:51.222Z,78.20
2019-01-15T08:48:51.193Z,78.17
2019-01-15T08:49:51.180Z,78.48
2019-01-15T08:50:51.167Z,78.06
2019-01-15T08:51:51.157Z,78.38
2019-01-15T08:52:51.151Z,78.52
2019-01-15T08:53:51.135Z,77.96
2019-01-15T08:54:51.124Z,78.06
2019-01-15T08:55:51.113Z,78.10
2019-01-15T08:56:51.103Z,78.31
2019-01-15T08:57:51.092Z,78.48
2019-01-15T08:58:51.084Z,77.96
2019-01-15T08:59:51.070Z,78.38
2019-01-15T09:00:51.069Z,77.96
2019-01-15T09:01:51.080Z,77.75
2019-01-15T09:02:51.039Z,78.06
2019-01-15T09:03:51.028Z,77.55
2019-01-15T09:04:51.027Z,78.41
2019-01-15T09:05:51.019Z,78.69
2019-01-15T09:06:51.005Z,79.03
2019-01-15T09:07:50.985Z,78.38
2019-01-15T09:08:50.975Z,78.79
2019-01-15T09:09:50.963Z,79.10
2019-01-15T09:10:50.954Z,79.21
2019-01-15T09:11:50.942Z,79.31
2019-01-15T09:12:50.934Z,79.72
2019-01-15T09:13:50.920Z,80.46
2019-01-15T09:14:50.909Z,80.66
2019-01-15T09:15:50.900Z,80.87
2019-01-15T09:16:50.889Z,80.77
2019-01-15T09:17:50.881Z,80.77
2019-01-15T09:18:50.872Z,81.39
2019-01-15T09:19:50.856Z,81.81
2019-01-15T09:20:50.997Z,81.95
2019-01-15T09:21:50.846Z,81.32
2019-01-15T09:22:50.828Z,81.95
2019-01-15T09:23:50.816Z,81.32
2019-01-15T09:24:50.810Z,81.08
2019-01-15T09:25:50.791Z,81.91
2019-01-15T09:26:50.785Z,81.81
2019-01-15T09:27:50.770Z,81.32
2019-01-15T09:28:50.759Z,81.32
2019-01-15T09:29:50.751Z,81.70
2019-01-15T09:30:50.738Z,82.12
2019-01-15T09:31:50.730Z,82.36
2019-01-15T09:32:50.716Z,81.95
2019-01-15T09:33:50.707Z,82.26
2019-01-15T09:34:50.698Z,82.15
2019-01-15T09:35:50.694Z,83.30
2019-01-15T09:36:50.672Z,82.89
2019-01-15T09:37:50.669Z,83.30
2019-01-15T09:38:50.655Z,83.30
2019-01-15T09:39:50.645Z,83.30
2019-01-15T09:40:50.633Z,83.30
2019-01-15T09:41:50.951Z,83.61
2019-01-15T09:42:50.609Z,83.20
2019-01-15T09:43:50.597Z,83.09
2019-01-15T09:44:50.586Z,83.20
2019-01-15T09:45:50.580Z,83.20
2019-01-15T09:46:50.588Z,83.20
2019-01-15T09:47:50.676Z,82.46
2019-01-15T09:48:50.544Z,82.46
2019-01-15T09:49:50.533Z,82.46
2019-01-15T09:50:50.530Z,83.51
2019-01-15T09:51:50.515Z,82.36
2019-01-15T09:52:50.502Z,82.36
2019-01-15T09:53:50.495Z,82.57
2019-01-15T09:54:50.478Z,82.36
2019-01-15T09:55:50.469Z,82.32
2019-01-15T09:56:50.468Z,82.22
2019-01-15T09:57:50.449Z,82.12
2019-01-15T09:58:50.438Z,82.01
2019-01-15T09:59:51.131Z,82.01
2019-01-15T10:00:50.415Z,82.12
2019-01-15T10:01:50.448Z,82.01
2019-01-15T10:02:50.402Z,82.01
2019-01-15T10:03:50.394Z,82.43
2019-01-15T10:04:50.463Z,83.37
2019-01-15T10:05:50.371Z,83.05
2019-01-15T10:06:50.358Z,83.16
2019-01-15T10:07:50.346Z,83.78
2019-01-15T10:08:50.329Z,83.89
2019-01-15T10:09:50.324Z,84.20
2019-01-15T10:10:50.879Z,84.34
2019-01-15T10:11:50.307Z,84.86
2019-01-15T10:12:50.291Z,85.34
2019-01-15T10:13:50.893Z,84.92
2019-01-15T10:14:50.271Z,84.61
2019-01-15T10:15:50.266Z,84.65
2019-01-15T10:16:50.250Z,85.06
2019-01-15T10:17:50.255Z,85.34
2019-01-15T10:18:51.142Z,85.34
2019-01-15T10:19:50.220Z,85.44
2019-01-15T10:20:50.208Z,85.03
2019-01-15T10:21:50.199Z,84.92
2019-01-15T10:22:50.184Z,84.92
2019-01-15T10:23:50.170Z,84.92
2019-01-15T10:24:50.156Z,84.82
2019-01-15T10:25:50.150Z,84.92
2019-01-15T10:26:50.136Z,84.72
2019-01-15T10:27:50.125Z,84.92
2019-01-15T10:28:50.213Z,84.82
2019-01-15T10:29:50.104Z,85.13
2019-01-15T10:30:50.767Z,84.92
2019-01-15T10:31:50.082Z,85.24
2019-01-15T10:32:50.184Z,84.86
2019-01-15T10:33:50.064Z,85.24
2019-01-15T10:34:50.078Z,85.28
2019-01-15T10:35:50.059Z,85.34
2019-01-15T10:36:50.072Z,85.03
2019-01-15T10:37:50.028Z,84.82
2019-01-15T10:38:50.013Z,84.72
2019-01-15T10:39:50.006Z,85.24
2019-01-15T10:40:49.990Z,85.24
2019-01-15T10:41:49.974Z,84.92
2019-01-15T10:42:49.966Z,84.82
2019-01-15T10:43:49.952Z,84.68
2019-01-15T10:44:49.947Z,84.51
2019-01-15T10:45:49.931Z,84.72
2019-01-15T10:46:49.926Z,84.51
2019-01-15T10:47:49.909Z,84.16
2019-01-15T10:48:49.904Z,84.78
2019-01-15T10:49:49.890Z,84.41
2019-01-15T10:50:49.889Z,84.51
2019-01-15T10:51:49.872Z,84.58
2019-01-15T10:52:49.869Z,84.78
2019-01-15T10:53:49.846Z,84.99
2019-01-15T10:54:49.845Z,84.58
2019-01-15T10:55:49.823Z,84.41
2019-01-15T10:56:49.853Z,84.58
2019-01-15T10:57:49.810Z,84.37
2019-01-15T10:58:49.808Z,84.89
2019-01-15T10:59:49.782Z,84.47
2019-01-15T11:00:49.835Z,84.16
2019-01-15T11:01:49.759Z,84.27
2019-01-15T11:02:49.749Z,83.74
2019-01-15T11:03:49.737Z,84.05
2019-01-15T11:04:49.729Z,83.95
2019-01-15T11:05:49.718Z,83.95
2019-01-15T11:06:49.705Z,83.84
2019-01-15T11:07:49.695Z,83.33
2019-01-15T11:08:49.684Z,83.53
2019-01-15T11:09:49.676Z,83.12
2019-01-15T11:10:49.673Z,83.53
2019-01-15T11:11:49.652Z,83.33
2019-01-15T11:12:49.644Z,83.39
2019-01-15T11:13:49.630Z,83.33
2019-01-15T11:14:55.851Z,82.98
2019-01-15T11:15:50.614Z,83.18
2019-01-15T11:16:49.604Z,82.98
2019-01-15T11:17:49.588Z,82.98
2019-01-15T11:18:49.582Z,83.18
2019-01-15T11:19:49.568Z,83.08
2019-01-15T11:20:49.558Z,82.46
2019-01-15T11:21:49.551Z,82.25
2019-01-15T11:22:49.537Z,82.25
2019-01-15T11:23:49.527Z,82.25
2019-01-15T11:24:49.513Z,82.25
2019-01-15T11:25:49.502Z,82.25
2019-01-15T11:26:49.491Z,82.15
2019-01-15T11:27:49.497Z,82.04
2019-01-15T11:28:49.471Z,82.11
2019-01-15T11:29:49.477Z,82.21
2019-01-15T11:30:49.447Z,81.84
2019-01-15T11:31:49.448Z,81.80
2019-01-15T11:32:49.429Z,82.01
2019-01-15T11:33:49.572Z,82.01
2019-01-15T11:34:49.407Z,82.11
2019-01-15T11:35:49.762Z,81.49
2019-01-15T11:37:05.547Z,82.01
2019-01-15T11:37:50.958Z,81.49
2019-01-15T11:38:49.418Z,81.80
2019-01-15T11:39:49.363Z,81.59
2019-01-15T11:40:50.002Z,81.73
2019-01-15T11:41:49.333Z,81.90
2019-01-15T11:42:49.320Z,81.90
2019-01-15T11:43:49.603Z,82.01
2019-01-15T11:44:49.510Z,81.90
2019-01-15T11:45:49.522Z,81.90
2019-01-15T11:46:49.283Z,81.49
2019-01-15T11:47:50.149Z,81.80
2019-01-15T11:48:50.218Z,81.90
2019-01-15T11:49:49.499Z,82.01
2019-01-15T11:50:49.659Z,83.15
2019-01-15T11:51:49.654Z,83.15
2019-01-15T11:52:49.222Z,83.15
2019-01-15T11:53:49.202Z,83.77
2019-01-15T11:54:49.231Z,83.87
2019-01-15T11:55:49.183Z,83.56
2019-01-15T11:56:49.590Z,84.39
2019-01-15T11:57:49.281Z,84.50
2019-01-15T11:58:49.847Z,84.33
2019-01-15T11:59:49.941Z,84.60
2019-01-15T12:00:49.300Z,85.22
2019-01-15T12:01:49.329Z,85.33
2019-01-15T12:02:49.871Z,85.02
2019-01-15T12:03:49.123Z,84.91
2019-01-15T12:04:49.615Z,85.22
2019-01-15T12:05:49.657Z,85.64
2019-01-15T12:06:49.475Z,85.68
2019-01-15T12:07:49.475Z,85.99
2019-01-15T12:08:49.391Z,86.19
2019-01-15T12:09:49.049Z,86.72
2019-01-15T12:10:49.037Z,86.93
2019-01-15T12:11:49.016Z,87.34
2019-01-15T12:12:49.009Z,86.99
2019-01-15T12:13:48.995Z,87.13
2019-01-15T12:14:48.990Z,87.13
2019-01-15T12:15:48.979Z,86.99
2019-01-15T12:16:48.965Z,87.24
2019-01-15T12:17:48.954Z,87.24
2019-01-15T12:18:48.949Z,87.96
2019-01-15T12:19:48.929Z,87.45
2019-01-15T12:20:49.001Z,87.24
2019-01-15T12:21:50.637Z,87.76
2019-01-15T12:22:48.898Z,88.07
2019-01-15T12:23:48.908Z,87.45
2019-01-15T12:24:48.878Z,87.24
2019-01-15T12:25:48.867Z,88.23
2019-01-15T12:26:48.865Z,88.38
2019-01-15T12:27:48.854Z,88.17
2019-01-15T12:28:48.835Z,88.07
2019-01-15T12:29:48.825Z,88.65
2019-01-15T12:30:48.820Z,88.17
2019-01-15T12:31:48.809Z,88.23
2019-01-15T12:32:48.797Z,88.02
2019-01-15T12:33:48.789Z,88.44
2019-01-15T12:34:48.770Z,88.23
2019-01-15T12:35:48.759Z,88.13
2019-01-15T12:36:48.748Z,88.13
2019-01-15T12:37:48.735Z,88.02
2019-01-15T12:38:48.736Z,88.13
2019-01-15T12:39:48.720Z,88.13
2019-01-15T12:40:48.707Z,88.34
2019-01-15T12:41:48.695Z,88.34
2019-01-15T12:42:48.688Z,88.23
2019-01-15T12:43:48.674Z,88.13
2019-01-15T12:44:48.669Z,88.23
2019-01-15T12:45:48.652Z,88.34
2019-01-15T12:46:48.644Z,88.44
2019-01-15T12:47:48.631Z,88.34
2019-01-15T12:48:48.620Z,88.23
2019-01-15T12:49:48.612Z,88.23
2019-01-15T12:50:48.614Z,88.02
2019-01-15T12:51:48.590Z,88.34
2019-01-15T12:52:48.582Z,88.09